Flight Track Log - Related Links

Times and Time Zones

All times are in EST time to prevent confusion due to time zone crossing. See the N789EX flight status page for this flight to view local times or setup timezone preferences in your user account.

Time Position Orientation Groundspeed Altitude Reporting Facility
EST Latitude Longitude Course Direction KTS MPH feet Rate Location/Type
Fri 02:26:02 PM 34.6336 -117.4344 North 258 297 8,000  Level Los Angeles Center
Fri 02:27:05 PM 34.6817 -117.3756 45° Northeast 286 329 11,000 2,400 Climbing Los Angeles Center
Fri 02:28:07 PM 34.6339 -117.2861 123° Southeast 330 380 13,000 1,935 Climbing Los Angeles Center
Fri 02:29:09 PM 34.5758 -117.1933 127° Southeast 340 391 15,000 919 Climbing Los Angeles Center
Fri 02:30:11 PM 34.5422 -117.0886 111° Southeast 360 414 14,900 -48 Descending Los Angeles Center
Fri 02:31:00 PM 34.5975 -117.3830 North  Level Estimated
Fri 02:31:13 PM 34.5281 -116.9525 97° East 344 396 14,900  Level Los Angeles Center
Fri 02:37:25 PM 34.1680 -116.5462 97° East 333 383 14,800 -15 Descending FlightAware ADS-B
Fri 02:38:05 PM 34.0929 -116.5168 162° South 335 386 14,800  Level FlightAware ADS-B
Fri 02:38:39 PM 34.0429 -116.4974 162° South 338 389 14,800  Level FlightAware ADS-B
Fri 02:39:26 PM 33.9814 -116.4732 162° South 335 386 14,800  Level FlightAware ADS-B
Fri 02:40:07 PM 33.9153 -116.4474 162° South 338 389 14,800  Level FlightAware ADS-B
Fri 02:40:27 PM 33.8964 -116.4383 158° South 348 400 14,800  Level FlightAware ADS-B
Fri 02:40:46 PM 33.8672 -116.3998 132° Southeast 352 405 14,800  Level FlightAware ADS-B
Fri 02:40:59 PM 33.8672 -116.3998 132° Southeast 351 404 14,800 245 Level FlightAware ADS-B
Fri 02:41:35 PM 33.8517 -116.3133 132° Southeast 349 402 15,000 109 Climbing Los Angeles Center
Fri 02:42:49 PM 33.8350 -116.2031 100° East 338 389 15,000  Level Los Angeles Center
Fri 02:43:51 PM 33.8128 -116.0644 101° East 350 403 15,000  Level Los Angeles Center
Fri 02:44:54 PM 33.7936 -115.9531 102° East 341 392 15,000  Level Los Angeles Center
Fri 02:45:56 PM 33.7767 -115.8406 100° East 340 391 15,000  Level Los Angeles Center
Fri 02:46:58 PM 33.7539 -115.7044 101° East 344 396 15,000  Level Los Angeles Center
Fri 02:48:00 PM 33.7350 -115.5833 101° East 361 415 15,000  Level Los Angeles Center
Fri 02:49:02 PM 33.7083 -115.4286 102° East 453 521 15,000  Level Los Angeles Center
Fri 02:50:04 PM 33.6831 -115.2764 101° East 464 534 15,000  Level Los Angeles Center
Fri 02:51:07 PM 33.6567 -115.1225 102° East 469 540 15,000  Level Los Angeles Center
Fri 02:52:09 PM 33.6314 -114.9697 101° East 467 537 15,000  Level Los Angeles Center
Fri 02:53:11 PM 33.6022 -114.7883 101° East 463 533 15,000  Level Los Angeles Center
Fri 02:54:13 PM 33.5858 -114.6336 97° East 468 539 15,000  Level Los Angeles Center
Fri 02:55:15 PM 33.5764 -114.4772 94° East 472 543 15,000  Level Los Angeles Center
Fri 02:56:17 PM 33.5669 -114.3228 94° East 468 539 15,000  Level Los Angeles Center
Fri 02:57:19 PM 33.5581 -114.1842 94° East 465 535 15,000  Level Los Angeles Center
Fri 02:58:22 PM 33.5442 -113.9986 95° East 466 536 15,000  Level Los Angeles Center
Fri 02:59:24 PM 33.4989 -113.8519 110° East 476 548 15,000  Level Los Angeles Center
Fri 03:00:26 PM 33.4378 -113.7167 118° Southeast 466 536 15,000 941 Level Los Angeles Center
Fri 03:05:40 PM 33.0924 -112.9669 118° Southeast 496 571 20,900 1,238 Climbing FlightAware ADS-B (VRMM / MLE)
Fri 03:06:10 PM 33.0596 -112.8959 119° Southeast 506 582 22,100 2,231 Climbing FlightAware ADS-B (VRMM / MLE)
Fri 03:06:58 PM 33.0050 -112.7789 119° Southeast 513 590 23,800 2,020 Climbing FlightAware ADS-B (VRMM / MLE)
Fri 03:07:48 PM 32.9451 -112.6504 119° Southeast 532 612 25,400 1,902 Climbing FlightAware ADS-B (VRMM / MLE)
Fri 03:08:20 PM 32.9064 -112.5693 120° Southeast 540 621 26,400 1,913 Climbing FlightAware ADS-B (KTLH)
Fri 03:08:57 PM 32.8890 -112.5332 120° Southeast 546 628 27,600 1,870 Climbing FlightAware ADS-B (KTLH)
Fri 03:09:37 PM 32.8213 -112.3930 120° Southeast 553 636 28,800 1,960 Climbing FlightAware ADS-B (KTLH)
Fri 03:10:38 PM 32.7313 -112.2068 120° Southeast 553 636 30,900 1,860 Climbing FlightAware ADS-B (VRMM / MLE)
Fri 03:11:17 PM 32.6817 -112.1044 120° Southeast 557 641 31,900 1,333 Climbing FlightAware ADS-B (VRMM / MLE)
Fri 03:11:50 PM 32.6496 -112.0381 120° Southeast 564 649 32,500 563 Climbing FlightAware ADS-B
Fri 03:12:21 PM 32.6147 -111.9661 120° Southeast 569 655 32,500  Level FlightAware ADS-B (YBLN / BQB)
Fri 03:13:01 PM 32.5492 -111.8321 120° Southeast 571 657 32,500  Level FlightAware ADS-B (YBLN / BQB)
Fri 03:13:41 PM 32.4934 -111.7180 120° Southeast 566 651 32,500  Level FlightAware ADS-B (YBLN / BQB)
Fri 03:14:05 PM 32.4611 -111.6523 120° Southeast 562 647 32,500  Level FlightAware ADS-B (VRMM / MLE)
Fri 03:14:24 PM 32.4361 -111.6015 120° Southeast 562 647 32,500  Level FlightAware ADS-B (VRMM / MLE)
Fri 03:14:58 PM 32.3918 -111.5115 120° Southeast 558 642 32,500  Level FlightAware ADS-B (VRMM / MLE)
Fri 03:15:30 PM 32.3515 -111.4300 120° Southeast 561 646 32,500  Level FlightAware ADS-B
Fri 03:16:01 PM 32.3096 -111.3451 120° Southeast 563 648 32,500  Level FlightAware ADS-B (KTLH)
Fri 03:16:36 PM 32.2627 -111.2509 120° Southeast 564 649 32,500  Level FlightAware ADS-B (VRMM / MLE)
Fri 03:17:10 PM 32.2240 -111.1728 120° Southeast 567 652 32,500  Level FlightAware ADS-B
Fri 03:17:41 PM 32.1790 -111.0826 120° Southeast 569 655 32,500  Level FlightAware ADS-B (KTLH)
Fri 03:18:20 PM 32.1244 -110.9736 121° Southeast 569 655 32,500  Level FlightAware ADS-B (VRMM / MLE)
Fri 03:18:50 PM 32.0913 -110.9075 121° Southeast 567 652 32,500  Level FlightAware ADS-B
Fri 03:19:17 PM 32.0512 -110.8223 119° Southeast 564 649 32,500  Level FlightAware ADS-B (VRMM / MLE)
Fri 03:19:28 PM 32.0443 -110.7987 109° East 557 641 32,500  Level FlightAware ADS-B
Fri 03:19:49 PM 32.0398 -110.7600 98° East 534 615 32,500  Level FlightAware ADS-B
Fri 03:20:08 PM 32.0572 -110.6801 76° East 515 593 32,500  Level FlightAware ADS-B
Fri 03:20:40 PM 32.0887 -110.6022 64° Northeast 516 594 32,500  Level FlightAware ADS-B
Fri 03:21:10 PM 32.1198 -110.5250 65° Northeast 518 596 32,500  Level FlightAware ADS-B
Fri 03:21:41 PM 32.1474 -110.4426 68° East 534 615 32,500  Level FlightAware ADS-B (KTLH)
Fri 03:22:12 PM 32.1587 -110.3573 81° East 539 620 32,500  Level FlightAware ADS-B (YBLN / BQB)
Fri 03:22:50 PM 32.1690 -110.2492 84° East 541 623 32,500  Level FlightAware ADS-B
Fri 03:23:30 PM 32.1794 -110.1404 84° East 538 619 32,500  Level FlightAware ADS-B
Fri 03:24:04 PM 32.1913 -110.0202 83° East 537 618 32,500  Level FlightAware ADS-B (KTLH)
Fri 03:24:48 PM 32.2047 -109.8924 83° East 536 617 32,500  Level FlightAware ADS-B (VRMM / MLE)
Fri 03:25:30 PM 32.2140 -109.8039 83° East 534 615 32,500  Level FlightAware ADS-B
Fri 03:26:04 PM 32.2271 -109.6782 83° East 532 612 32,500  Level FlightAware ADS-B
Fri 03:26:37 PM 32.2375 -109.5772 83° East 534 615 32,500  Level FlightAware ADS-B (VRMM / MLE)
Fri 03:27:24 PM 32.2512 -109.4419 83° East 535 616 32,500  Level FlightAware ADS-B
Fri 03:27:54 PM 32.2541 -109.4130 83° East 526 605 32,500  Level FlightAware ADS-B
Fri 03:28:28 PM 32.2823 -109.2640 77° East 535 616 32,500  Level FlightAware ADS-B (VRMM / MLE)
Fri 03:28:38 PM 32.2843 -109.2596 62° Northeast 506 582 32,500  Level FlightAware ADS-B
Fri 03:28:55 PM 32.3199 -109.2052 52° Northeast 477 549 32,500  Level FlightAware ADS-B (VRMM / MLE)
Fri 03:29:27 PM 32.3565 -109.1637 44° Northeast 482 555 32,500  Level FlightAware ADS-B
Fri 03:30:00 PM 32.4061 -109.1070 44° Northeast 482 555 32,500  Level FlightAware ADS-B
Fri 03:30:34 PM 32.3914 -109.1238 224° Southwest 480 552 32,500  Level FlightAware ADS-B
Fri 03:31:20 PM 32.4772 -109.0253 44° Northeast 480 552 32,500  Level FlightAware ADS-B
Fri 03:32:44 PM 32.6675 -108.8033 44° Northeast 478 550 32,500 41 Level Albuquerque Center
Fri 03:33:46 PM 32.7619 -108.6956 44° Northeast 477 549 32,600 240 Climbing Albuquerque Center
Fri 03:34:49 PM 32.8739 -108.5650 44° Northeast 477 549 33,000 720 Climbing Albuquerque Center
Fri 03:35:51 PM 32.9669 -108.4567 44° Northeast 474 545 34,100 968 Climbing Albuquerque Center
Fri 03:36:53 PM 33.0589 -108.3492 44° Northeast 469 540 35,000 435 Climbing Albuquerque Center
Fri 03:37:55 PM 33.1542 -108.2383 44° Northeast 475 547 35,000  Level Albuquerque Center
Fri 03:38:57 PM 33.2508 -108.1247 44° Northeast 485 558 35,000  Level Albuquerque Center
Fri 03:39:59 PM 33.3658 -107.9892 45° Northeast 485 558 35,000  Level Albuquerque Center
Fri 03:45:41 PM 33.9212 -107.3276 45° Northeast 490 564 35,000  Level FlightAware ADS-B
Fri 03:46:40 PM 34.0104 -107.2202 45° Northeast 494 568 35,000  Level FlightAware ADS-B
Fri 03:47:41 PM 34.1167 -107.1064 42° Northeast 467 537 35,000  Level FlightAware ADS-B
Fri 03:48:41 PM 34.2316 -107.0630 17° North 452 520 35,000  Level FlightAware ADS-B
Fri 03:49:41 PM 34.3545 -107.0259 14° North 451 519 35,000  Level FlightAware ADS-B
Fri 03:50:42 PM 34.4718 -106.9905 14° North 450 518 35,000  Level FlightAware ADS-B
Fri 03:51:44 PM 34.6105 -106.9485 14° North 453 521 35,000  Level FlightAware ADS-B
Fri 03:52:46 PM 34.7325 -106.9116 14° North 458 527 35,000 45 Level FlightAware ADS-B
Fri 03:53:57 PM 34.8643 -106.8143 31° Northeast 490 564 35,100 323 Climbing FlightAware ADS-B
Fri 03:54:19 PM 34.8875 -106.7646 60° Northeast 509 586 35,500 1,304 Climbing FlightAware ADS-B
Fri 03:56:15 PM 34.8346 -106.4608 102° East 552 635 38,100 1,552 Climbing FlightAware ADS-B
Fri 03:57:13 PM 34.7590 -106.3341 126° Southeast 529 609 40,000 1,036 Climbing FlightAware ADS-B
Fri 03:58:05 PM 34.6892 -106.2166 126° Southeast 538 619 40,000  Level FlightAware ADS-B
Fri 03:58:56 PM 34.5885 -106.0478 126° Southeast 542 624 40,000  Level FlightAware ADS-B
Fri 03:59:38 PM 34.5364 -105.9614 126° Southeast 540 621 40,000  Level Albuquerque Center
Fri 04:00:40 PM 34.4469 -105.8106 126° Southeast 545 627 40,000  Level Albuquerque Center
Fri 04:01:42 PM 34.3519 -105.6639 128° Southeast 548 631 40,000  Level Albuquerque Center
Fri 04:02:44 PM 34.2194 -105.5244 139° Southeast 539 620 40,000  Level Albuquerque Center
Fri 04:03:46 PM 34.1044 -105.4050 139° Southeast 541 623 40,000  Level Albuquerque Center
Fri 04:04:48 PM 33.9878 -105.2839 139° Southeast 548 631 40,000  Level Albuquerque Center
Fri 04:05:51 PM 33.8617 -105.1569 140° Southeast 549 632 40,000  Level Albuquerque Center
Fri 04:06:53 PM 33.7461 -105.0367 139° Southeast 551 634 40,000  Level Albuquerque Center
Fri 04:07:55 PM 33.6194 -104.9089 140° Southeast 554 638 40,000  Level Albuquerque Center
Fri 04:08:57 PM 33.5044 -104.7903 139° Southeast 548 631 40,000  Level Albuquerque Center
Fri 04:09:59 PM 33.3839 -104.6681 140° Southeast 530 610 40,000  Level Albuquerque Center
Fri 04:11:01 PM 33.2833 -104.5672 140° Southeast 523 602 40,000  Level Albuquerque Center
Fri 04:12:03 PM 33.1528 -104.4431 141° Southeast 529 609 40,000  Level Albuquerque Center
Fri 04:13:05 PM 33.0297 -104.3250 141° Southeast 528 608 40,000  Level Albuquerque Center
Fri 04:14:07 PM 32.9167 -104.2150 141° Southeast 527 606 40,000  Level Albuquerque Center
Fri 04:14:32 PM 32.8725 -104.1736 142° Southeast 526 605 40,000  Level Albuquerque Center
Fri 04:15:34 PM 32.7467 -104.0553 142° Southeast 535 616 40,000  Level Albuquerque Center
Fri 04:16:36 PM 32.6403 -103.9550 142° Southeast 530 610 40,000  Level Albuquerque Center
Fri 04:17:38 PM 32.5053 -103.9233 169° South 516 594 40,000  Level Albuquerque Center
Fri 04:18:40 PM 32.4000 -104.0022 212° Southwest 478 550 40,000  Level Albuquerque Center
Fri 04:19:42 PM 32.3581 -104.1608 253° West 422 486 40,000  Level Albuquerque Center
Fri 04:20:44 PM 32.3261 -104.2950 254° West 423 487 40,000 -48 Level Albuquerque Center
Fri 04:21:46 PM 32.2925 -104.4253 253° West 418 481 39,900  Descending Albuquerque Center
Fri 04:22:49 PM 32.2614 -104.5556 254° West 415 478 40,000 48 Climbing Albuquerque Center
Fri 04:23:51 PM 32.2281 -104.6861 253° West 416 479 40,000  Level Albuquerque Center
Fri 04:24:53 PM 32.1953 -104.8147 253° West 414 476 40,000  Level Albuquerque Center
Fri 04:25:55 PM 32.1550 -104.9731 253° West 419 482 40,000 -48 Level Albuquerque Center
Fri 04:26:57 PM 32.1219 -105.1044 253° West 421 484 39,900 -774 Descending Albuquerque Center
Fri 04:27:59 PM 32.0881 -105.2356 253° West 420 483 38,400 -1,839 Descending Albuquerque Center
Fri 04:29:01 PM 32.0569 -105.3603 254° West 406 467 36,100 -1,161 Descending Albuquerque Center
Fri 04:30:03 PM 32.0250 -105.4864 253° West 404 465 36,000 -97 Descending Albuquerque Center
Fri 04:31:05 PM 31.9831 -105.6439 253° West 421 484 35,900 -48 Descending Albuquerque Center
Fri 04:32:07 PM 31.9481 -105.7767 253° West 426 490 35,900 48 Level Albuquerque Center
Fri 04:33:09 PM 31.9131 -105.9117 253° West 431 496 36,000 48 Climbing Albuquerque Center
Fri 04:34:11 PM 31.8775 -106.0469 253° West 434 499 36,000  Level Albuquerque Center
Fri 04:35:13 PM 31.8428 -106.1806 253° West 432 497 36,000 -48 Level Albuquerque Center
Fri 04:36:15 PM 31.8175 -106.3156 258° West 424 488 35,900 -1,296 Descending Albuquerque Center
Fri 04:37:18 PM 31.8311 -106.4694 276° West 399 459 33,300 -2,640 Descending Albuquerque Center
Fri 04:38:20 PM 31.8400 -106.5978 275° West 403 464 30,400 -1,597 Descending Albuquerque Center
Fri 04:39:22 PM 31.8506 -106.7300 275° West 405 466 30,000 -194 Descending Albuquerque Center
Fri 04:40:24 PM 31.8606 -106.8642 275° West 409 471 30,000  Level Albuquerque Center
Fri 04:41:26 PM 31.8692 -106.9969 274° West 407 468 30,000  Level Albuquerque Center
Fri 04:42:28 PM 31.8800 -107.1569 275° West 407 468 30,000  Level Albuquerque Center
Fri 04:43:30 PM 31.8892 -107.2903 275° West 407 468 30,000  Level Albuquerque Center
Fri 04:44:32 PM 31.8978 -107.4233 274° West 407 468 30,000  Level Albuquerque Center
Fri 04:45:34 PM 31.9069 -107.5569 275° West 407 468 30,000  Level Albuquerque Center
Fri 04:46:36 PM 31.9161 -107.6897 275° West 406 467 30,000  Level Albuquerque Center
Fri 04:48:40 PM 31.9328 -107.9594 273° West 413 475 30,000  Level Albuquerque Center
Fri 04:49:42 PM 31.9442 -108.1211 275° West 414 476 30,000  Level Albuquerque Center
Fri 04:50:44 PM 31.9531 -108.2550 275° West 411 473 30,000  Level Albuquerque Center
Fri 04:56:20 PM 32.1023 -109.0544 275° West 443 510 30,000  Level FlightAware ADS-B (YBLN / BQB)
Fri 04:56:53 PM 32.1278 -109.1298 292° West 443 510 30,000  Level FlightAware ADS-B (VRMM / MLE)
Fri 04:57:26 PM 32.1532 -109.2048 292° West 445 512 30,000  Level FlightAware ADS-B (VRMM / MLE)
Fri 04:58:00 PM 32.1788 -109.2808 292° West 443 510 30,000  Level FlightAware ADS-B (YBLN / BQB)
Fri 04:58:40 PM 32.2091 -109.3711 292° West 444 511 30,000  Level FlightAware ADS-B (VRMM / MLE)
Fri 04:59:40 PM 32.2546 -109.5068 292° West 444 511 30,000  Level FlightAware ADS-B
Fri 05:00:30 PM 32.2852 -109.5985 292° West 443 510 30,000  Level FlightAware ADS-B
Fri 05:01:00 PM 32.3104 -109.6739 292° West 441 507 30,000  Level FlightAware ADS-B
Fri 05:01:30 PM 32.3353 -109.7488 291° West 441 507 30,000  Level FlightAware ADS-B
Fri 05:02:00 PM 32.3590 -109.8203 291° West 443 510 30,000  Level FlightAware ADS-B
Fri 05:02:30 PM 32.3796 -109.8828 291° West 442 509 30,000  Level FlightAware ADS-B
Fri 05:03:00 PM 32.4040 -109.9564 291° West 445 512 30,000  Level FlightAware ADS-B
Fri 05:03:36 PM 32.4309 -110.0383 291° West 447 514 30,000  Level FlightAware ADS-B (VRMM / MLE)
Fri 05:04:12 PM 32.4516 -110.1013 291° West 447 514 30,000  Level FlightAware ADS-B
Fri 05:04:45 PM 32.4744 -110.1706 291° West 447 514 30,000  Level FlightAware ADS-B (KTLH)
Fri 05:05:20 PM 32.5085 -110.2752 291° West 448 516 30,000  Level FlightAware ADS-B (YBLN / BQB)
Fri 05:05:52 PM 32.5316 -110.3456 291° West 445 512 30,000  Level FlightAware ADS-B
Fri 05:06:40 PM 32.5655 -110.4501 291° West 449 517 30,000  Level FlightAware ADS-B (YBLN / BQB)
Fri 05:07:16 PM 32.5943 -110.5391 291° West 449 517 30,000  Level FlightAware ADS-B (VRMM / MLE)
Fri 05:07:50 PM 32.6128 -110.5962 291° West 445 512 30,000  Level FlightAware ADS-B
Fri 05:08:29 PM 32.6444 -110.6941 291° West 443 510 30,000  Level FlightAware ADS-B (KTLH)
Fri 05:09:10 PM 32.6750 -110.7893 291° West 443 510 30,000  Level FlightAware ADS-B
Fri 05:09:17 PM 32.6827 -110.8133 291° West 442 509 30,000  Level FlightAware ADS-B (YBLN / BQB)
Fri 05:09:50 PM 32.7051 -110.8829 291° West 441 507 30,000  Level FlightAware ADS-B
Fri 05:10:05 PM 32.7179 -110.9232 291° West 439 505 30,000  Level FlightAware ADS-B (VRMM / MLE)
Fri 05:10:40 PM 32.7420 -110.9984 291° West 443 510 30,000  Level FlightAware ADS-B (YBLN / BQB)
Fri 05:11:06 PM 32.7620 -111.0612 291° West 441 507 30,000  Level FlightAware ADS-B (VRMM / MLE)
Fri 05:11:40 PM 32.7868 -111.1392 291° West 446 513 30,000  Level FlightAware ADS-B (YBLN / BQB)
Fri 05:11:49 PM 32.7926 -111.1574 291° West 446 513 30,000  Level FlightAware ADS-B
Fri 05:12:08 PM 32.8072 -111.2037 291° West 444 511 30,000  Level FlightAware ADS-B (VRMM / MLE)
Fri 05:12:27 PM 32.8211 -111.2477 291° West 443 510 30,000  Level FlightAware ADS-B (VRMM / MLE)
Fri 05:12:59 PM 32.8349 -111.2911 291° West 444 511 30,000  Level FlightAware ADS-B (YBLN / BQB)
Fri 05:13:39 PM 32.8604 -111.3720 291° West 444 511 30,000  Level FlightAware ADS-B (YBLN / BQB)
Fri 05:14:10 PM 32.8879 -111.4597 291° West 442 509 30,000  Level FlightAware ADS-B
Fri 05:14:42 PM 32.9160 -111.5488 291° West 442 509 30,000  Level FlightAware ADS-B (KTLH)
Fri 05:15:13 PM 32.9392 -111.6231 290° West 443 510 30,000  Level FlightAware ADS-B
Fri 05:15:47 PM 32.9639 -111.7020 290° West 443 510 30,000  Level FlightAware ADS-B
Fri 05:15:57 PM 32.9713 -111.7257 290° West 439 505 30,000  Level FlightAware ADS-B (VRMM / MLE)
Fri 05:16:17 PM 32.9851 -111.7702 290° West 436 502 30,000  Level FlightAware ADS-B (VRMM / MLE)
Fri 05:16:54 PM 33.0112 -111.8540 290° West 438 504 30,000  Level FlightAware ADS-B (VRMM / MLE)
Fri 05:17:00 PM 33.0123 -111.8576 291° West 440 506 30,000  Level FlightAware ADS-B (YBLN / BQB)
Fri 05:17:34 PM 33.0399 -111.9468 290° West 437 503 30,000  Level FlightAware ADS-B (VRMM / MLE)
Fri 05:18:25 PM 33.0759 -112.0634 290° West 441 507 30,000  Level FlightAware ADS-B (VRMM / MLE)
Fri 05:19:05 PM 33.1035 -112.1534 290° West 442 509 30,000  Level FlightAware ADS-B (VRMM / MLE)
Fri 05:19:43 PM 33.1307 -112.2420 290° West 444 511 30,000  Level FlightAware ADS-B (VRMM / MLE)
Fri 05:20:23 PM 33.1591 -112.3346 290° West 441 507 30,000  Level FlightAware ADS-B (VRMM / MLE)
Fri 05:21:10 PM 33.1906 -112.4378 290° West 443 510 30,000  Level FlightAware ADS-B
Fri 05:21:46 PM 33.1928 -112.4452 290° West 443 510 30,000  Level FlightAware ADS-B
Fri 05:22:35 PM 33.2506 -112.6357 290° West 441 507 30,000  Level FlightAware ADS-B (VRMM / MLE)
Fri 05:23:18 PM 33.2802 -112.7340 290° West 443 510 30,000  Level FlightAware ADS-B (VRMM / MLE)
Fri 05:24:35 PM 33.3338 -112.9123 290° West 442 509 30,000 -56 Level FlightAware ADS-B (VRMM / MLE)
Fri 05:25:05 PM 33.3458 -112.9508 290° West 445 512 29,900  Descending Los Angeles Center
Fri 05:25:52 PM 33.3783 -113.0592 290° West 440 506 30,000  Climbing Albuquerque Center
Fri 05:26:54 PM 33.4192 -113.1969 290° West 440 506 29,900  Descending Albuquerque Center
Fri 05:27:56 PM 33.4664 -113.3631 289° West 442 509 30,000  Climbing Albuquerque Center
Fri 05:28:58 PM 33.4786 -113.5111 276° West 449 517 29,900 -48 Descending Albuquerque Center
Fri 05:30:01 PM 33.4939 -113.6575 277° West 446 513 29,900 48 Level Albuquerque Center
Fri 05:31:03 PM 33.5078 -113.8047 276° West 447 514 30,000  Climbing Albuquerque Center
Fri 05:32:05 PM 33.5208 -113.9514 276° West 446 513 29,900 -48 Descending Albuquerque Center
Fri 05:33:07 PM 33.5608 -114.1197 286° West 441 507 29,900 48 Level Albuquerque Center
Fri 05:34:09 PM 33.6000 -114.2572 289° West 439 505 30,000  Climbing Albuquerque Center
Fri 05:35:11 PM 33.6397 -114.3961 289° West 440 506 29,900 -435 Descending Albuquerque Center
Fri 05:36:13 PM 33.6803 -114.5319 290° West 436 502 29,100 -569 Descending Albuquerque Center
Fri 05:42:23 PM 33.9597 -115.3529 290° West 418 481 25,800 -676 Descending FlightAware ADS-B (EPLL / LCJ)
Fri 05:43:19 PM 33.9872 -115.4806 285° West 418 481 24,300 -1,776 Descending FlightAware ADS-B (EPLL / LCJ)
Fri 05:44:01 PM 34.0073 -115.5745 284° West 411 473 22,900 -2,458 Descending FlightAware ADS-B (EPLL / LCJ)
Fri 05:44:42 PM 34.0151 -115.6110 285° West 403 464 20,900 -941 Descending FlightAware ADS-B
Fri 05:47:06 PM 34.0151 -115.6110 285° West 402 463 20,000 -190 Descending FlightAware ADS-B
Fri 05:49:26 PM 34.1548 -116.2751 284° West 402 463 20,000  Level FlightAware ADS-B
Fri 05:50:17 PM 34.1867 -116.3880 289° West 404 465 20,000 -1,075 Level FlightAware ADS-B
Fri 05:51:12 PM 34.2312 -116.4958 297° West 389 448 18,100 -2,250 Descending FlightAware ADS-B
Fri 05:52:01 PM 34.2667 -116.5811 297° West 386 444 16,100 -2,571 Descending Los Angeles Center
Fri 05:53:04 PM 34.3128 -116.6933 296° West 375 432 13,300 -1,920 Descending Los Angeles Center
Fri 05:54:06 PM 34.3578 -116.8011 297° West 363 418 12,100 -581 Descending Los Angeles Center
Fri 05:55:08 PM 34.3914 -116.8856 296° West 280 322 12,100 -48 Level Los Angeles Center
Fri 05:56:10 PM 34.4175 -116.9522 295° West 231 266 12,000 -48 Descending Los Angeles Center
Fri 05:57:12 PM 34.4453 -117.0192 297° West 222 255 12,000  Level Los Angeles Center
Fri 05:58:14 PM 34.4806 -117.1078 296° West 238 274 12,000 -1,182 Level Los Angeles Center
Fri 05:59:29 PM 34.5272 -117.1806 308° West 233 268 9,300 -2,409 Descending Los Angeles Center
Fri 06:00:31 PM 34.5769 -117.2244 324° Northwest 227 261 6,500 -1,984 Descending Los Angeles Center
Fri 06:01:33 PM 34.6231 -117.2694 321° Northwest 220 253 5,200 -1,155 Descending Los Angeles Center
Fri 06:03:38 PM 34.5992 -117.3656 253° West 160 184 2,900 -770 Descending Los Angeles Center
Fri 06:04:40 PM 34.5717 -117.4000 226° Southwest 157 181 2,800 -97 Descending Los Angeles Center

Login

Don't have an account? Register now (free) for customized features, flight alerts, and more!